sensor_id;sensor_type;location;lat;lon;timestamp;P1;durP1;ratioP1;P2;durP2;ratioP2
36213;SDS011;37652;50.400;30.628;2022-07-29T00:01:05;4.50;;;3.67;;
36213;SDS011;37652;50.400;30.628;2022-07-29T00:03:05;6.75;;;3.58;;
36213;SDS011;37652;50.400;30.628;2022-07-29T00:05:07;5.15;;;3.30;;
36213;SDS011;37652;50.400;30.628;2022-07-29T00:07:09;6.28;;;3.03;;
36213;SDS011;37652;50.400;30.628;2022-07-29T00:09:10;3.25;;;2.95;;
36213;SDS011;37652;50.400;30.628;2022-07-29T00:11:10;6.53;;;4.22;;
36213;SDS011;37652;50.400;30.628;2022-07-29T00:13:11;10.27;;;4.30;;
36213;SDS011;37652;50.400;30.628;2022-07-29T00:15:12;7.30;;;4.35;;
36213;SDS011;37652;50.400;30.628;2022-07-29T00:17:13;7.43;;;5.10;;
36213;SDS011;37652;50.400;30.628;2022-07-29T00:19:13;6.88;;;4.53;;
36213;SDS011;37652;50.400;30.628;2022-07-29T00:21:14;9.90;;;5.22;;
36213;SDS011;37652;50.400;30.628;2022-07-29T00:23:15;7.20;;;4.93;;
36213;SDS011;37652;50.400;30.628;2022-07-29T00:25:16;5.43;;;4.38;;
36213;SDS011;37652;50.400;30.628;2022-07-29T00:27:17;5.35;;;4.03;;
36213;SDS011;37652;50.400;30.628;2022-07-29T00:31:18;7.80;;;4.17;;
36213;SDS011;37652;50.400;30.628;2022-07-29T00:33:19;6.60;;;4.85;;
36213;SDS011;37652;50.400;30.628;2022-07-29T00:35:20;6.38;;;4.55;;
36213;SDS011;37652;50.400;30.628;2022-07-29T00:37:40;5.40;;;4.18;;
36213;SDS011;37652;50.400;30.628;2022-07-29T00:39:40;7.05;;;5.30;;
36213;SDS011;37652;50.400;30.628;2022-07-29T00:41:41;7.25;;;4.88;;
36213;SDS011;37652;50.400;30.628;2022-07-29T00:43:42;5.75;;;4.10;;
36213;SDS011;37652;50.400;30.628;2022-07-29T00:45:43;3.78;;;3.05;;
36213;SDS011;37652;50.400;30.628;2022-07-29T00:47:43;6.00;;;3.55;;
36213;SDS011;37652;50.400;30.628;2022-07-29T00:49:44;5.35;;;3.25;;
36213;SDS011;37652;50.400;30.628;2022-07-29T00:51:45;3.70;;;3.40;;
36213;SDS011;37652;50.400;30.628;2022-07-29T00:53:46;5.18;;;2.90;;
36213;SDS011;37652;50.400;30.628;2022-07-29T00:55:50;4.97;;;3.20;;
36213;SDS011;37652;50.400;30.628;2022-07-29T00:57:53;5.85;;;3.53;;
36213;SDS011;37652;50.400;30.628;2022-07-29T00:59:54;7.55;;;4.38;;
36213;SDS011;37652;50.400;30.628;2022-07-29T01:01:55;3.92;;;3.50;;
36213;SDS011;37652;50.400;30.628;2022-07-29T01:03:56;5.30;;;3.95;;
36213;SDS011;37652;50.400;30.628;2022-07-29T01:05:57;5.25;;;4.57;;
36213;SDS011;37652;50.400;30.628;2022-07-29T01:07:58;3.55;;;3.08;;
36213;SDS011;37652;50.400;30.628;2022-07-29T01:12:01;6.10;;;4.07;;
36213;SDS011;37652;50.400;30.628;2022-07-29T01:14:02;6.82;;;4.47;;
36213;SDS011;37652;50.400;30.628;2022-07-29T01:16:25;9.35;;;5.90;;
36213;SDS011;37652;50.400;30.628;2022-07-29T01:18:32;7.47;;;5.63;;
36213;SDS011;37652;50.400;30.628;2022-07-29T01:20:58;8.68;;;6.25;;
36213;SDS011;37652;50.400;30.628;2022-07-29T01:25:57;10.80;;;5.72;;
36213;SDS011;37652;50.400;30.628;2022-07-29T01:30:21;3.55;;;3.03;;
36213;SDS011;37652;50.400;30.628;2022-07-29T01:32:26;3.95;;;2.78;;
36213;SDS011;37652;50.400;30.628;2022-07-29T01:34:41;6.18;;;3.17;;
36213;SDS011;37652;50.400;30.628;2022-07-29T01:36:51;5.60;;;2.80;;
36213;SDS011;37652;50.400;30.628;2022-07-29T01:39:19;6.68;;;2.83;;
36213;SDS011;37652;50.400;30.628;2022-07-29T01:41:26;6.55;;;4.63;;
36213;SDS011;37652;50.400;30.628;2022-07-29T01:43:33;7.30;;;5.50;;
36213;SDS011;37652;50.400;30.628;2022-07-29T01:45:40;9.02;;;5.22;;
36213;SDS011;37652;50.400;30.628;2022-07-29T01:47:56;8.30;;;5.47;;
36213;SDS011;37652;50.400;30.628;2022-07-29T01:50:11;7.68;;;5.03;;
36213;SDS011;37652;50.400;30.628;2022-07-29T01:52:34;5.85;;;5.18;;
36213;SDS011;37652;50.400;30.628;2022-07-29T01:54:50;8.35;;;6.28;;
36213;SDS011;37652;50.400;30.628;2022-07-29T01:56:55;9.75;;;5.90;;
36213;SDS011;37652;50.400;30.628;2022-07-29T01:58:58;10.10;;;5.15;;
36213;SDS011;37652;50.400;30.628;2022-07-29T02:01:00;6.15;;;4.68;;
36213;SDS011;37652;50.400;30.628;2022-07-29T02:03:04;4.72;;;4.32;;
36213;SDS011;37652;50.400;30.628;2022-07-29T02:05:10;7.22;;;4.03;;
36213;SDS011;37652;50.400;30.628;2022-07-29T02:07:13;6.75;;;3.97;;
36213;SDS011;37652;50.400;30.628;2022-07-29T02:09:17;4.53;;;4.10;;
36213;SDS011;37652;50.400;30.628;2022-07-29T02:11:22;6.53;;;4.50;;
36213;SDS011;37652;50.400;30.628;2022-07-29T02:13:22;5.40;;;3.95;;
36213;SDS011;37652;50.400;30.628;2022-07-29T02:15:25;5.97;;;3.78;;
36213;SDS011;37652;50.400;30.628;2022-07-29T02:17:49;8.63;;;5.45;;
36213;SDS011;37652;50.400;30.628;2022-07-29T02:19:57;5.93;;;4.95;;
36213;SDS011;37652;50.400;30.628;2022-07-29T02:22:01;6.63;;;6.00;;
36213;SDS011;37652;50.400;30.628;2022-07-29T02:24:04;8.20;;;6.20;;
36213;SDS011;37652;50.400;30.628;2022-07-29T02:28:06;5.25;;;4.70;;
36213;SDS011;37652;50.400;30.628;2022-07-29T02:30:08;9.18;;;6.30;;
36213;SDS011;37652;50.400;30.628;2022-07-29T02:32:10;5.85;;;4.70;;
36213;SDS011;37652;50.400;30.628;2022-07-29T02:34:13;5.40;;;4.05;;
36213;SDS011;37652;50.400;30.628;2022-07-29T02:36:15;5.15;;;3.38;;
36213;SDS011;37652;50.400;30.628;2022-07-29T02:40:38;3.28;;;2.75;;
36213;SDS011;37652;50.400;30.628;2022-07-29T02:42:41;5.45;;;2.90;;
36213;SDS011;37652;50.400;30.628;2022-07-29T02:44:43;3.35;;;2.10;;
36213;SDS011;37652;50.400;30.628;2022-07-29T02:46:49;4.10;;;3.55;;
36213;SDS011;37652;50.400;30.628;2022-07-29T02:49:01;4.53;;;3.25;;
36213;SDS011;37652;50.400;30.628;2022-07-29T02:51:12;3.60;;;2.88;;
36213;SDS011;37652;50.400;30.628;2022-07-29T02:53:18;6.00;;;2.78;;
36213;SDS011;37652;50.400;30.628;2022-07-29T02:55:30;4.50;;;3.85;;
36213;SDS011;37652;50.400;30.628;2022-07-29T02:59:35;5.80;;;3.90;;
36213;SDS011;37652;50.400;30.628;2022-07-29T03:01:41;5.10;;;3.72;;
36213;SDS011;37652;50.400;30.628;2022-07-29T03:03:44;5.57;;;3.38;;
36213;SDS011;37652;50.400;30.628;2022-07-29T03:05:46;3.05;;;2.42;;
36213;SDS011;37652;50.400;30.628;2022-07-29T03:07:51;5.40;;;3.28;;
36213;SDS011;37652;50.400;30.628;2022-07-29T03:09:55;7.50;;;4.05;;
36213;SDS011;37652;50.400;30.628;2022-07-29T03:11:57;5.60;;;4.35;;
36213;SDS011;37652;50.400;30.628;2022-07-29T03:13:58;5.65;;;3.90;;
36213;SDS011;37652;50.400;30.628;2022-07-29T03:15:58;3.88;;;3.25;;
36213;SDS011;37652;50.400;30.628;2022-07-29T03:18:00;6.65;;;3.38;;
36213;SDS011;37652;50.400;30.628;2022-07-29T03:20:01;5.80;;;4.88;;
36213;SDS011;37652;50.400;30.628;2022-07-29T03:24:03;8.00;;;7.05;;
36213;SDS011;37652;50.400;30.628;2022-07-29T03:26:04;10.63;;;7.20;;
36213;SDS011;37652;50.400;30.628;2022-07-29T03:30:06;10.30;;;8.17;;
36213;SDS011;37652;50.400;30.628;2022-07-29T03:32:08;8.57;;;6.72;;
36213;SDS011;37652;50.400;30.628;2022-07-29T03:34:08;8.13;;;5.75;;
36213;SDS011;37652;50.400;30.628;2022-07-29T03:36:09;8.45;;;4.38;;
36213;SDS011;37652;50.400;30.628;2022-07-29T03:38:10;4.07;;;3.60;;
36213;SDS011;37652;50.400;30.628;2022-07-29T03:40:11;4.57;;;3.67;;
36213;SDS011;37652;50.400;30.628;2022-07-29T03:42:35;5.43;;;4.90;;
36213;SDS011;37652;50.400;30.628;2022-07-29T03:44:41;6.85;;;5.35;;
36213;SDS011;37652;50.400;30.628;2022-07-29T03:46:44;5.18;;;4.32;;
36213;SDS011;37652;50.400;30.628;2022-07-29T03:48:48;4.25;;;3.63;;
36213;SDS011;37652;50.400;30.628;2022-07-29T03:50:52;6.35;;;4.05;;
36213;SDS011;37652;50.400;30.628;2022-07-29T03:52:53;4.82;;;3.35;;
36213;SDS011;37652;50.400;30.628;2022-07-29T03:54:54;4.75;;;3.15;;
36213;SDS011;37652;50.400;30.628;2022-07-29T03:56:55;4.95;;;2.85;;
36213;SDS011;37652;50.400;30.628;2022-07-29T03:59:01;6.20;;;3.25;;
36213;SDS011;37652;50.400;30.628;2022-07-29T04:01:02;9.93;;;4.03;;
36213;SDS011;37652;50.400;30.628;2022-07-29T04:05:04;6.65;;;4.22;;
36213;SDS011;37652;50.400;30.628;2022-07-29T04:07:12;9.43;;;7.20;;
36213;SDS011;37652;50.400;30.628;2022-07-29T04:09:13;10.20;;;5.60;;
36213;SDS011;37652;50.400;30.628;2022-07-29T04:13:15;4.72;;;2.53;;
36213;SDS011;37652;50.400;30.628;2022-07-29T04:15:16;6.30;;;3.42;;
36213;SDS011;37652;50.400;30.628;2022-07-29T04:17:17;3.92;;;3.25;;
36213;SDS011;37652;50.400;30.628;2022-07-29T04:19:18;10.73;;;7.38;;
36213;SDS011;37652;50.400;30.628;2022-07-29T04:21:18;7.35;;;5.10;;
36213;SDS011;37652;50.400;30.628;2022-07-29T04:23:19;7.47;;;4.00;;
36213;SDS011;37652;50.400;30.628;2022-07-29T04:25:20;5.63;;;2.95;;
36213;SDS011;37652;50.400;30.628;2022-07-29T04:27:21;7.13;;;2.25;;
36213;SDS011;37652;50.400;30.628;2022-07-29T04:29:21;3.60;;;1.95;;
36213;SDS011;37652;50.400;30.628;2022-07-29T04:31:22;4.45;;;1.73;;
36213;SDS011;37652;50.400;30.628;2022-07-29T04:33:23;1.63;;;1.52;;
36213;SDS011;37652;50.400;30.628;2022-07-29T04:35:24;2.75;;;1.70;;
36213;SDS011;37652;50.400;30.628;2022-07-29T04:37:25;5.82;;;2.08;;
36213;SDS011;37652;50.400;30.628;2022-07-29T04:39:26;2.78;;;1.80;;
36213;SDS011;37652;50.400;30.628;2022-07-29T04:41:27;5.85;;;2.08;;
36213;SDS011;37652;50.400;30.628;2022-07-29T04:43:28;1.67;;;1.58;;
36213;SDS011;37652;50.400;30.628;2022-07-29T04:45:29;3.70;;;1.90;;
36213;SDS011;37652;50.400;30.628;2022-07-29T04:47:30;4.10;;;2.17;;
36213;SDS011;37652;50.400;30.628;2022-07-29T04:51:31;4.17;;;2.60;;
36213;SDS011;37652;50.400;30.628;2022-07-29T04:53:32;4.45;;;3.30;;
36213;SDS011;37652;50.400;30.628;2022-07-29T04:57:33;7.83;;;2.67;;
36213;SDS011;37652;50.400;30.628;2022-07-29T04:59:34;4.22;;;1.95;;
36213;SDS011;37652;50.400;30.628;2022-07-29T05:01:35;4.25;;;1.95;;
36213;SDS011;37652;50.400;30.628;2022-07-29T05:03:36;7.03;;;2.10;;
36213;SDS011;37652;50.400;30.628;2022-07-29T05:05:36;5.85;;;2.05;;
36213;SDS011;37652;50.400;30.628;2022-07-29T05:07:37;6.75;;;1.98;;
36213;SDS011;37652;50.400;30.628;2022-07-29T05:09:38;2.15;;;1.52;;
36213;SDS011;37652;50.400;30.628;2022-07-29T05:13:39;5.43;;;1.70;;
36213;SDS011;37652;50.400;30.628;2022-07-29T05:15:40;3.20;;;1.80;;
36213;SDS011;37652;50.400;30.628;2022-07-29T05:17:41;2.60;;;2.00;;
36213;SDS011;37652;50.400;30.628;2022-07-29T05:19:43;4.55;;;1.85;;
36213;SDS011;37652;50.400;30.628;2022-07-29T05:21:44;6.28;;;2.20;;
36213;SDS011;37652;50.400;30.628;2022-07-29T05:23:45;7.47;;;2.83;;
36213;SDS011;37652;50.400;30.628;2022-07-29T05:25:45;5.03;;;2.00;;
36213;SDS011;37652;50.400;30.628;2022-07-29T05:27:46;5.55;;;1.90;;
36213;SDS011;37652;50.400;30.628;2022-07-29T05:31:48;8.48;;;2.53;;
36213;SDS011;37652;50.400;30.628;2022-07-29T05:33:48;5.20;;;2.85;;
36213;SDS011;37652;50.400;30.628;2022-07-29T05:37:50;6.50;;;2.60;;
36213;SDS011;37652;50.400;30.628;2022-07-29T05:39:51;6.18;;;2.25;;
36213;SDS011;37652;50.400;30.628;2022-07-29T05:43:52;8.07;;;2.50;;
36213;SDS011;37652;50.400;30.628;2022-07-29T05:45:53;5.85;;;2.65;;
36213;SDS011;37652;50.400;30.628;2022-07-29T05:49:54;6.13;;;2.50;;
36213;SDS011;37652;50.400;30.628;2022-07-29T05:51:55;3.30;;;2.35;;
36213;SDS011;37652;50.400;30.628;2022-07-29T05:55:57;4.30;;;2.40;;
36213;SDS011;37652;50.400;30.628;2022-07-29T05:57:57;4.45;;;2.65;;
36213;SDS011;37652;50.400;30.628;2022-07-29T05:59:58;5.40;;;2.20;;
36213;SDS011;37652;50.400;30.628;2022-07-29T06:03:59;2.42;;;2.17;;
36213;SDS011;37652;50.400;30.628;2022-07-29T06:08:01;2.30;;;2.10;;
36213;SDS011;37652;50.400;30.628;2022-07-29T06:10:02;7.25;;;2.20;;
36213;SDS011;37652;50.400;30.628;2022-07-29T06:12:04;5.10;;;3.13;;
36213;SDS011;37652;50.400;30.628;2022-07-29T06:14:05;2.45;;;2.13;;
36213;SDS011;37652;50.400;30.628;2022-07-29T06:18:06;2.73;;;1.83;;
36213;SDS011;37652;50.400;30.628;2022-07-29T06:20:09;5.30;;;2.00;;
36213;SDS011;37652;50.400;30.628;2022-07-29T06:22:10;2.70;;;1.95;;
36213;SDS011;37652;50.400;30.628;2022-07-29T06:26:12;4.65;;;2.08;;
36213;SDS011;37652;50.400;30.628;2022-07-29T06:30:13;4.47;;;1.90;;
36213;SDS011;37652;50.400;30.628;2022-07-29T06:32:15;3.85;;;1.70;;
36213;SDS011;37652;50.400;30.628;2022-07-29T06:34:16;3.90;;;1.45;;
36213;SDS011;37652;50.400;30.628;2022-07-29T06:38:17;3.03;;;1.70;;
36213;SDS011;37652;50.400;30.628;2022-07-29T06:42:37;2.90;;;1.48;;
36213;SDS011;37652;50.400;30.628;2022-07-29T06:46:38;3.03;;;1.45;;
36213;SDS011;37652;50.400;30.628;2022-07-29T06:48:40;2.00;;;1.25;;
36213;SDS011;37652;50.400;30.628;2022-07-29T06:50:42;3.47;;;1.33;;
36213;SDS011;37652;50.400;30.628;2022-07-29T06:52:43;4.90;;;1.85;;
36213;SDS011;37652;50.400;30.628;2022-07-29T06:56:47;2.17;;;1.33;;
36213;SDS011;37652;50.400;30.628;2022-07-29T06:58:49;4.35;;;1.58;;
36213;SDS011;37652;50.400;30.628;2022-07-29T07:00:50;4.05;;;1.45;;
36213;SDS011;37652;50.400;30.628;2022-07-29T07:02:51;2.22;;;1.50;;
36213;SDS011;37652;50.400;30.628;2022-07-29T07:04:52;2.42;;;1.30;;
36213;SDS011;37652;50.400;30.628;2022-07-29T07:06:53;7.32;;;1.65;;
36213;SDS011;37652;50.400;30.628;2022-07-29T07:08:55;3.70;;;1.55;;
36213;SDS011;37652;50.400;30.628;2022-07-29T07:10:56;6.88;;;2.17;;
36213;SDS011;37652;50.400;30.628;2022-07-29T07:12:57;2.33;;;1.60;;
36213;SDS011;37652;50.400;30.628;2022-07-29T07:16:58;3.77;;;1.73;;
36213;SDS011;37652;50.400;30.628;2022-07-29T07:19:00;2.72;;;1.75;;
36213;SDS011;37652;50.400;30.628;2022-07-29T07:21:01;3.42;;;1.92;;
36213;SDS011;37652;50.400;30.628;2022-07-29T07:23:02;3.10;;;2.45;;
36213;SDS011;37652;50.400;30.628;2022-07-29T07:25:03;4.20;;;2.50;;
36213;SDS011;37652;50.400;30.628;2022-07-29T07:27:04;2.38;;;2.20;;
36213;SDS011;37652;50.400;30.628;2022-07-29T07:29:04;3.28;;;2.55;;
36213;SDS011;37652;50.400;30.628;2022-07-29T07:31:05;4.00;;;3.08;;
36213;SDS011;37652;50.400;30.628;2022-07-29T07:33:06;5.53;;;2.35;;
36213;SDS011;37652;50.400;30.628;2022-07-29T07:35:07;6.30;;;2.35;;
36213;SDS011;37652;50.400;30.628;2022-07-29T07:37:09;6.20;;;2.03;;
36213;SDS011;37652;50.400;30.628;2022-07-29T07:39:09;6.15;;;3.15;;
36213;SDS011;37652;50.400;30.628;2022-07-29T07:41:10;4.80;;;2.08;;
36213;SDS011;37652;50.400;30.628;2022-07-29T07:43:11;5.03;;;2.42;;
36213;SDS011;37652;50.400;30.628;2022-07-29T07:45:12;4.40;;;2.00;;
36213;SDS011;37652;50.400;30.628;2022-07-29T07:47:13;3.63;;;2.05;;
36213;SDS011;37652;50.400;30.628;2022-07-29T07:49:15;3.25;;;1.90;;
36213;SDS011;37652;50.400;30.628;2022-07-29T07:51:16;3.25;;;2.53;;
36213;SDS011;37652;50.400;30.628;2022-07-29T07:53:17;12.07;;;2.92;;
36213;SDS011;37652;50.400;30.628;2022-07-29T07:55:18;4.57;;;2.45;;
36213;SDS011;37652;50.400;30.628;2022-07-29T07:57:19;2.72;;;2.05;;
36213;SDS011;37652;50.400;30.628;2022-07-29T07:59:20;5.10;;;2.53;;
36213;SDS011;37652;50.400;30.628;2022-07-29T08:01:20;3.90;;;2.13;;
36213;SDS011;37652;50.400;30.628;2022-07-29T08:03:22;5.07;;;1.90;;
36213;SDS011;37652;50.400;30.628;2022-07-29T08:05:23;3.80;;;2.35;;
36213;SDS011;37652;50.400;30.628;2022-07-29T08:07:24;4.55;;;2.10;;
36213;SDS011;37652;50.400;30.628;2022-07-29T08:09:26;6.50;;;2.15;;
36213;SDS011;37652;50.400;30.628;2022-07-29T08:11:28;6.00;;;2.53;;
36213;SDS011;37652;50.400;30.628;2022-07-29T08:13:29;5.70;;;2.05;;
36213;SDS011;37652;50.400;30.628;2022-07-29T08:15:32;4.50;;;1.73;;
36213;SDS011;37652;50.400;30.628;2022-07-29T08:17:32;5.07;;;2.28;;
36213;SDS011;37652;50.400;30.628;2022-07-29T08:19:33;6.43;;;2.30;;
36213;SDS011;37652;50.400;30.628;2022-07-29T08:21:34;3.58;;;2.20;;
36213;SDS011;37652;50.400;30.628;2022-07-29T08:23:35;1.92;;;1.80;;
36213;SDS011;37652;50.400;30.628;2022-07-29T08:25:39;3.70;;;2.03;;
36213;SDS011;37652;50.400;30.628;2022-07-29T08:27:40;8.02;;;2.00;;
36213;SDS011;37652;50.400;30.628;2022-07-29T08:29:40;5.47;;;1.77;;
36213;SDS011;37652;50.400;30.628;2022-07-29T08:31:41;4.72;;;2.67;;
36213;SDS011;37652;50.400;30.628;2022-07-29T08:33:43;21.15;;;2.67;;
36213;SDS011;37652;50.400;30.628;2022-07-29T08:35:43;5.88;;;2.22;;
36213;SDS011;37652;50.400;30.628;2022-07-29T08:37:45;5.70;;;1.88;;
36213;SDS011;37652;50.400;30.628;2022-07-29T08:39:46;3.35;;;2.10;;
36213;SDS011;37652;50.400;30.628;2022-07-29T08:41:47;4.07;;;2.00;;
36213;SDS011;37652;50.400;30.628;2022-07-29T08:43:48;2.72;;;1.77;;
36213;SDS011;37652;50.400;30.628;2022-07-29T08:45:49;3.75;;;2.00;;
36213;SDS011;37652;50.400;30.628;2022-07-29T08:47:51;7.13;;;2.33;;
36213;SDS011;37652;50.400;30.628;2022-07-29T08:49:52;5.63;;;1.92;;
36213;SDS011;37652;50.400;30.628;2022-07-29T08:51:53;3.25;;;1.80;;
36213;SDS011;37652;50.400;30.628;2022-07-29T08:53:57;4.95;;;2.00;;
36213;SDS011;37652;50.400;30.628;2022-07-29T08:55:57;5.22;;;2.13;;
36213;SDS011;37652;50.400;30.628;2022-07-29T08:57:59;7.18;;;2.20;;
36213;SDS011;37652;50.400;30.628;2022-07-29T09:00:01;4.32;;;2.15;;
36213;SDS011;37652;50.400;30.628;2022-07-29T09:02:05;3.92;;;1.90;;
36213;SDS011;37652;50.400;30.628;2022-07-29T09:04:18;2.00;;;1.58;;
36213;SDS011;37652;50.400;30.628;2022-07-29T09:06:20;6.65;;;2.05;;
36213;SDS011;37652;50.400;30.628;2022-07-29T09:08:22;3.20;;;2.15;;
36213;SDS011;37652;50.400;30.628;2022-07-29T09:10:23;6.03;;;1.90;;
36213;SDS011;37652;50.400;30.628;2022-07-29T09:12:24;4.20;;;1.63;;
36213;SDS011;37652;50.400;30.628;2022-07-29T09:14:25;6.15;;;1.88;;
36213;SDS011;37652;50.400;30.628;2022-07-29T09:16:26;2.95;;;1.70;;
36213;SDS011;37652;50.400;30.628;2022-07-29T09:18:54;4.80;;;1.85;;
36213;SDS011;37652;50.400;30.628;2022-07-29T09:20:54;3.83;;;1.70;;
36213;SDS011;37652;50.400;30.628;2022-07-29T09:23:14;4.18;;;1.85;;
36213;SDS011;37652;50.400;30.628;2022-07-29T09:25:31;4.70;;;1.90;;
36213;SDS011;37652;50.400;30.628;2022-07-29T09:27:35;2.25;;;1.52;;
36213;SDS011;37652;50.400;30.628;2022-07-29T09:29:36;4.20;;;2.20;;
36213;SDS011;37652;50.400;30.628;2022-07-29T09:31:39;2.60;;;1.50;;
36213;SDS011;37652;50.400;30.628;2022-07-29T09:33:40;2.50;;;1.70;;
36213;SDS011;37652;50.400;30.628;2022-07-29T09:35:42;3.72;;;1.80;;
36213;SDS011;37652;50.400;30.628;2022-07-29T09:37:44;2.70;;;1.90;;
36213;SDS011;37652;50.400;30.628;2022-07-29T09:39:45;4.80;;;1.83;;
36213;SDS011;37652;50.400;30.628;2022-07-29T09:41:53;3.00;;;1.95;;
36213;SDS011;37652;50.400;30.628;2022-07-29T09:43:56;2.60;;;1.80;;
36213;SDS011;37652;50.400;30.628;2022-07-29T09:46:31;2.78;;;1.90;;
36213;SDS011;37652;50.400;30.628;2022-07-29T09:48:30;4.70;;;1.98;;
36213;SDS011;37652;50.400;30.628;2022-07-29T09:50:38;4.70;;;1.83;;
36213;SDS011;37652;50.400;30.628;2022-07-29T09:52:47;2.33;;;1.75;;
36213;SDS011;37652;50.400;30.628;2022-07-29T09:54:49;4.55;;;2.97;;
36213;SDS011;37652;50.400;30.628;2022-07-29T09:56:50;4.20;;;1.95;;
36213;SDS011;37652;50.400;30.628;2022-07-29T09:59:08;5.03;;;1.73;;
36213;SDS011;37652;50.400;30.628;2022-07-29T10:01:11;3.88;;;2.00;;
36213;SDS011;37652;50.400;30.628;2022-07-29T10:03:13;3.95;;;1.92;;
36213;SDS011;37652;50.400;30.628;2022-07-29T10:05:16;2.10;;;1.70;;
36213;SDS011;37652;50.400;30.628;2022-07-29T10:07:21;3.63;;;2.17;;
36213;SDS011;37652;50.400;30.628;2022-07-29T10:09:22;8.80;;;2.35;;
36213;SDS011;37652;50.400;30.628;2022-07-29T10:11:23;2.97;;;1.90;;
36213;SDS011;37652;50.400;30.628;2022-07-29T10:13:24;6.55;;;2.00;;
36213;SDS011;37652;50.400;30.628;2022-07-29T10:15:27;3.65;;;1.85;;
36213;SDS011;37652;50.400;30.628;2022-07-29T10:17:30;3.50;;;1.80;;
36213;SDS011;37652;50.400;30.628;2022-07-29T10:19:31;3.38;;;1.88;;
36213;SDS011;37652;50.400;30.628;2022-07-29T10:21:33;5.97;;;2.38;;
36213;SDS011;37652;50.400;30.628;2022-07-29T10:23:34;3.08;;;1.67;;
36213;SDS011;37652;50.400;30.628;2022-07-29T10:25:36;3.65;;;2.22;;
36213;SDS011;37652;50.400;30.628;2022-07-29T10:27:37;3.10;;;2.20;;
36213;SDS011;37652;50.400;30.628;2022-07-29T10:29:39;5.05;;;1.95;;
36213;SDS011;37652;50.400;30.628;2022-07-29T10:31:43;5.20;;;2.20;;
36213;SDS011;37652;50.400;30.628;2022-07-29T10:34:12;4.20;;;1.88;;
36213;SDS011;37652;50.400;30.628;2022-07-29T10:36:35;1.77;;;1.65;;
36213;SDS011;37652;50.400;30.628;2022-07-29T10:38:58;2.38;;;2.08;;
36213;SDS011;37652;50.400;30.628;2022-07-29T10:43:29;2.92;;;2.20;;
36213;SDS011;37652;50.400;30.628;2022-07-29T10:45:35;3.83;;;1.83;;
36213;SDS011;37652;50.400;30.628;2022-07-29T10:47:37;5.65;;;2.05;;
36213;SDS011;37652;50.400;30.628;2022-07-29T10:49:38;3.72;;;2.35;;
36213;SDS011;37652;50.400;30.628;2022-07-29T10:52:09;2.20;;;1.92;;
36213;SDS011;37652;50.400;30.628;2022-07-29T10:54:15;3.10;;;2.13;;
36213;SDS011;37652;50.400;30.628;2022-07-29T10:56:39;5.20;;;1.70;;
36213;SDS011;37652;50.400;30.628;2022-07-29T10:58:40;2.75;;;1.80;;
36213;SDS011;37652;50.400;30.628;2022-07-29T11:00:41;2.33;;;1.98;;
36213;SDS011;37652;50.400;30.628;2022-07-29T11:02:42;3.58;;;2.55;;
36213;SDS011;37652;50.400;30.628;2022-07-29T11:09:20;2.40;;;2.15;;
36213;SDS011;37652;50.400;30.628;2022-07-29T11:15:57;4.55;;;2.60;;
36213;SDS011;37652;50.400;30.628;2022-07-29T11:22:35;3.70;;;2.35;;
36213;SDS011;37652;50.400;30.628;2022-07-29T11:24:37;4.57;;;2.55;;
36213;SDS011;37652;50.400;30.628;2022-07-29T11:26:38;3.35;;;2.03;;
36213;SDS011;37652;50.400;30.628;2022-07-29T11:28:42;6.13;;;2.00;;
36213;SDS011;37652;50.400;30.628;2022-07-29T11:30:54;4.90;;;2.33;;
36213;SDS011;37652;50.400;30.628;2022-07-29T11:32:55;3.20;;;2.10;;
36213;SDS011;37652;50.400;30.628;2022-07-29T11:37:18;5.85;;;3.13;;
36213;SDS011;37652;50.400;30.628;2022-07-29T11:39:24;5.68;;;3.85;;
36213;SDS011;37652;50.400;30.628;2022-07-29T11:41:26;3.38;;;2.20;;
36213;SDS011;37652;50.400;30.628;2022-07-29T11:43:48;5.78;;;3.28;;
36213;SDS011;37652;50.400;30.628;2022-07-29T11:45:52;4.72;;;2.40;;
36213;SDS011;37652;50.400;30.628;2022-07-29T11:47:54;5.07;;;3.20;;
36213;SDS011;37652;50.400;30.628;2022-07-29T11:49:59;4.28;;;2.38;;
36213;SDS011;37652;50.400;30.628;2022-07-29T11:52:02;4.95;;;2.20;;
36213;SDS011;37652;50.400;30.628;2022-07-29T11:54:04;7.75;;;2.40;;
36213;SDS011;37652;50.400;30.628;2022-07-29T11:56:08;2.42;;;2.15;;
36213;SDS011;37652;50.400;30.628;2022-07-29T11:58:09;17.45;;;3.00;;
36213;SDS011;37652;50.400;30.628;2022-07-29T12:00:10;3.95;;;2.65;;
36213;SDS011;37652;50.400;30.628;2022-07-29T12:02:12;6.95;;;2.55;;
36213;SDS011;37652;50.400;30.628;2022-07-29T12:04:15;5.35;;;2.80;;
36213;SDS011;37652;50.400;30.628;2022-07-29T12:06:16;4.88;;;2.55;;
36213;SDS011;37652;50.400;30.628;2022-07-29T12:08:18;2.55;;;2.05;;
36213;SDS011;37652;50.400;30.628;2022-07-29T12:10:21;5.60;;;2.50;;
36213;SDS011;37652;50.400;30.628;2022-07-29T12:12:22;4.13;;;2.30;;
36213;SDS011;37652;50.400;30.628;2022-07-29T12:14:24;5.40;;;2.17;;
36213;SDS011;37652;50.400;30.628;2022-07-29T12:16:35;10.63;;;2.55;;
36213;SDS011;37652;50.400;30.628;2022-07-29T12:18:37;6.22;;;2.80;;
36213;SDS011;37652;50.400;30.628;2022-07-29T12:20:38;4.57;;;3.00;;
36213;SDS011;37652;50.400;30.628;2022-07-29T12:22:40;3.83;;;2.42;;
36213;SDS011;37652;50.400;30.628;2022-07-29T12:24:43;4.80;;;2.50;;
36213;SDS011;37652;50.400;30.628;2022-07-29T12:26:51;4.63;;;2.30;;
36213;SDS011;37652;50.400;30.628;2022-07-29T12:28:56;4.65;;;2.58;;
36213;SDS011;37652;50.400;30.628;2022-07-29T12:30:57;5.70;;;3.25;;
36213;SDS011;37652;50.400;30.628;2022-07-29T12:32:59;6.22;;;2.40;;
36213;SDS011;37652;50.400;30.628;2022-07-29T12:35:02;6.35;;;2.60;;
36213;SDS011;37652;50.400;30.628;2022-07-29T12:37:08;5.40;;;2.38;;
36213;SDS011;37652;50.400;30.628;2022-07-29T12:39:10;7.70;;;2.33;;
36213;SDS011;37652;50.400;30.628;2022-07-29T12:41:11;7.25;;;2.53;;
36213;SDS011;37652;50.400;30.628;2022-07-29T12:43:16;7.47;;;2.58;;
36213;SDS011;37652;50.400;30.628;2022-07-29T12:45:28;4.68;;;2.40;;
36213;SDS011;37652;50.400;30.628;2022-07-29T12:47:29;6.78;;;3.45;;
36213;SDS011;37652;50.400;30.628;2022-07-29T12:49:30;5.28;;;2.55;;
36213;SDS011;37652;50.400;30.628;2022-07-29T12:51:36;3.20;;;2.20;;
36213;SDS011;37652;50.400;30.628;2022-07-29T12:53:38;3.88;;;2.95;;
36213;SDS011;37652;50.400;30.628;2022-07-29T12:57:50;6.45;;;2.60;;
36213;SDS011;37652;50.400;30.628;2022-07-29T12:59:59;10.00;;;2.50;;
36213;SDS011;37652;50.400;30.628;2022-07-29T13:02:20;3.53;;;2.72;;
36213;SDS011;37652;50.400;30.628;2022-07-29T13:04:28;7.93;;;2.30;;
36213;SDS011;37652;50.400;30.628;2022-07-29T13:08:33;7.32;;;2.67;;
36213;SDS011;37652;50.400;30.628;2022-07-29T13:10:34;3.63;;;2.28;;
36213;SDS011;37652;50.400;30.628;2022-07-29T13:12:36;3.03;;;2.28;;
36213;SDS011;37652;50.400;30.628;2022-07-29T13:14:39;3.47;;;2.60;;
36213;SDS011;37652;50.400;30.628;2022-07-29T13:16:59;3.20;;;2.40;;
36213;SDS011;37652;50.400;30.628;2022-07-29T13:19:11;3.78;;;2.60;;
36213;SDS011;37652;50.400;30.628;2022-07-29T13:21:13;2.30;;;2.08;;
36213;SDS011;37652;50.400;30.628;2022-07-29T13:23:15;5.63;;;2.15;;
36213;SDS011;37652;50.400;30.628;2022-07-29T13:25:23;5.03;;;2.72;;
36213;SDS011;37652;50.400;30.628;2022-07-29T13:27:26;4.28;;;2.70;;
36213;SDS011;37652;50.400;30.628;2022-07-29T13:29:28;2.70;;;2.20;;
36213;SDS011;37652;50.400;30.628;2022-07-29T13:31:29;4.32;;;2.50;;
36213;SDS011;37652;50.400;30.628;2022-07-29T13:33:30;2.80;;;2.45;;
36213;SDS011;37652;50.400;30.628;2022-07-29T13:35:31;3.83;;;2.38;;